sensor_id;sensor_type;location;lat;lon;timestamp;noise_LAeq;noise_LA_min;noise_LA_max;noise_LA01;noise_LA95
67398;Laerm;57728;50.448;18.824;2023-05-10T00:00:54;33.38;32.05;37.91;;
67398;Laerm;57728;50.448;18.824;2023-05-10T00:02:56;33.13;32.01;34.53;;
67398;Laerm;57728;50.448;18.824;2023-05-10T00:04:57;33.11;32.10;39.51;;
67398;Laerm;57728;50.448;18.824;2023-05-10T00:06:58;33.06;32.01;34.09;;
67398;Laerm;57728;50.448;18.824;2023-05-10T00:09:00;33.02;31.85;34.50;;
67398;Laerm;57728;50.448;18.824;2023-05-10T00:11:01;33.06;31.73;35.13;;
67398;Laerm;57728;50.448;18.824;2023-05-10T00:13:03;33.04;32.00;34.00;;
67398;Laerm;57728;50.448;18.824;2023-05-10T00:15:06;33.08;32.08;34.32;;
67398;Laerm;57728;50.448;18.824;2023-05-10T00:17:07;33.04;31.84;35.49;;
67398;Laerm;57728;50.448;18.824;2023-05-10T00:19:09;33.06;32.13;34.22;;
67398;Laerm;57728;50.448;18.824;2023-05-10T00:21:11;33.06;31.86;34.19;;
67398;Laerm;57728;50.448;18.824;2023-05-10T00:23:12;33.03;31.72;34.02;;
67398;Laerm;57728;50.448;18.824;2023-05-10T00:25:13;33.08;31.89;34.04;;
67398;Laerm;57728;50.448;18.824;2023-05-10T00:27:15;33.06;32.03;34.13;;
67398;Laerm;57728;50.448;18.824;2023-05-10T00:29:16;33.25;31.89;34.74;;
67398;Laerm;57728;50.448;18.824;2023-05-10T00:31:18;33.10;32.00;34.10;;
67398;Laerm;57728;50.448;18.824;2023-05-10T00:33:20;33.09;31.87;34.94;;
67398;Laerm;57728;50.448;18.824;2023-05-10T00:35:22;33.13;31.95;34.55;;
67398;Laerm;57728;50.448;18.824;2023-05-10T00:37:23;33.08;31.95;34.12;;
67398;Laerm;57728;50.448;18.824;2023-05-10T00:39:25;33.10;31.99;34.80;;
67398;Laerm;57728;50.448;18.824;2023-05-10T00:41:30;33.09;32.11;34.09;;
67398;Laerm;57728;50.448;18.824;2023-05-10T00:43:38;33.31;31.99;40.71;;
67398;Laerm;57728;50.448;18.824;2023-05-10T00:45:41;33.13;32.00;36.41;;
67398;Laerm;57728;50.448;18.824;2023-05-10T00:47:42;33.13;32.04;34.80;;
67398;Laerm;57728;50.448;18.824;2023-05-10T00:49:45;33.09;32.04;35.08;;
67398;Laerm;57728;50.448;18.824;2023-05-10T00:51:48;33.07;32.05;34.13;;
67398;Laerm;57728;50.448;18.824;2023-05-10T00:53:51;33.09;32.11;34.49;;
67398;Laerm;57728;50.448;18.824;2023-05-10T00:55:52;33.09;31.87;34.68;;
67398;Laerm;57728;50.448;18.824;2023-05-10T00:57:58;33.07;31.93;34.56;;
67398;Laerm;57728;50.448;18.824;2023-05-10T01:00:02;33.12;32.00;37.79;;
67398;Laerm;57728;50.448;18.824;2023-05-10T01:02:05;33.14;31.84;35.60;;
67398;Laerm;57728;50.448;18.824;2023-05-10T01:04:10;33.10;31.88;34.13;;
67398;Laerm;57728;50.448;18.824;2023-05-10T01:06:13;33.15;31.94;34.60;;
67398;Laerm;57728;50.448;18.824;2023-05-10T01:08:15;33.41;32.17;35.61;;
67398;Laerm;57728;50.448;18.824;2023-05-10T01:10:17;33.19;32.09;39.61;;
67398;Laerm;57728;50.448;18.824;2023-05-10T01:12:25;33.13;32.05;37.55;;
67398;Laerm;57728;50.448;18.824;2023-05-10T01:14:28;33.17;32.14;34.54;;
67398;Laerm;57728;50.448;18.824;2023-05-10T01:16:38;33.14;31.95;35.08;;
67398;Laerm;57728;50.448;18.824;2023-05-10T01:18:43;33.13;32.12;37.87;;
67398;Laerm;57728;50.448;18.824;2023-05-10T01:21:01;33.12;32.03;34.19;;
67398;Laerm;57728;50.448;18.824;2023-05-10T01:34:02;33.15;32.11;34.50;;
67398;Laerm;57728;50.448;18.824;2023-05-10T01:38:51;33.28;32.20;35.14;;
67398;Laerm;57728;50.448;18.824;2023-05-10T01:41:32;33.16;32.00;37.04;;
67398;Laerm;57728;50.448;18.824;2023-05-10T01:43:52;33.19;32.18;34.47;;
67398;Laerm;57728;50.448;18.824;2023-05-10T01:46:17;33.17;32.05;34.34;;
67398;Laerm;57728;50.448;18.824;2023-05-10T01:48:24;33.12;31.58;36.20;;
67398;Laerm;57728;50.448;18.824;2023-05-10T01:50:31;33.24;32.17;38.87;;
67398;Laerm;57728;50.448;18.824;2023-05-10T01:52:42;33.50;32.13;48.53;;
67398;Laerm;57728;50.448;18.824;2023-05-10T01:54:55;33.60;32.04;47.99;;
67398;Laerm;57728;50.448;18.824;2023-05-10T01:57:05;33.39;32.06;44.74;;
67398;Laerm;57728;50.448;18.824;2023-05-10T01:59:15;33.36;31.95;46.82;;
67398;Laerm;57728;50.448;18.824;2023-05-10T02:01:21;33.50;32.09;39.06;;
67398;Laerm;57728;50.448;18.824;2023-05-10T02:03:25;33.46;32.27;42.03;;
67398;Laerm;57728;50.448;18.824;2023-05-10T02:05:32;33.36;32.08;39.14;;
67398;Laerm;57728;50.448;18.824;2023-05-10T02:07:36;33.63;32.22;43.94;;
67398;Laerm;57728;50.448;18.824;2023-05-10T02:09:38;33.44;31.97;45.34;;
67398;Laerm;57728;50.448;18.824;2023-05-10T02:11:43;33.46;32.15;48.50;;
67398;Laerm;57728;50.448;18.824;2023-05-10T02:13:49;33.42;32.22;38.51;;
67398;Laerm;57728;50.448;18.824;2023-05-10T02:15:54;33.38;32.04;46.84;;
67398;Laerm;57728;50.448;18.824;2023-05-10T02:18:01;33.51;32.16;48.58;;
67398;Laerm;57728;50.448;18.824;2023-05-10T02:20:06;33.30;32.12;35.84;;
67398;Laerm;57728;50.448;18.824;2023-05-10T02:22:10;33.44;32.03;45.28;;
67398;Laerm;57728;50.448;18.824;2023-05-10T02:24:16;33.81;32.12;54.18;;
67398;Laerm;57728;50.448;18.824;2023-05-10T02:26:23;33.69;32.30;45.74;;
67398;Laerm;57728;50.448;18.824;2023-05-10T02:28:28;33.44;32.04;40.72;;
67398;Laerm;57728;50.448;18.824;2023-05-10T02:30:33;33.48;32.26;41.69;;
67398;Laerm;57728;50.448;18.824;2023-05-10T02:32:37;33.42;32.24;42.22;;
67398;Laerm;57728;50.448;18.824;2023-05-10T02:34:41;33.45;32.07;38.32;;
67398;Laerm;57728;50.448;18.824;2023-05-10T02:36:44;33.29;32.25;35.64;;
67398;Laerm;57728;50.448;18.824;2023-05-10T02:38:47;33.48;32.12;36.15;;
67398;Laerm;57728;50.448;18.824;2023-05-10T02:40:53;33.44;32.31;35.55;;
67398;Laerm;57728;50.448;18.824;2023-05-10T02:43:01;33.50;32.19;37.60;;
67398;Laerm;57728;50.448;18.824;2023-05-10T02:45:12;33.61;32.26;38.19;;
67398;Laerm;57728;50.448;18.824;2023-05-10T02:47:14;33.50;32.30;40.13;;
67398;Laerm;57728;50.448;18.824;2023-05-10T02:49:16;33.88;32.27;42.55;;
67398;Laerm;57728;50.448;18.824;2023-05-10T02:51:24;33.54;32.18;36.85;;
67398;Laerm;57728;50.448;18.824;2023-05-10T02:53:36;34.18;32.29;42.36;;
67398;Laerm;57728;50.448;18.824;2023-05-10T02:55:43;33.98;32.22;38.07;;
67398;Laerm;57728;50.448;18.824;2023-05-10T02:57:57;33.82;32.12;39.10;;
67398;Laerm;57728;50.448;18.824;2023-05-10T03:00:01;34.02;32.29;38.89;;
67398;Laerm;57728;50.448;18.824;2023-05-10T03:02:06;33.53;31.97;39.10;;
67398;Laerm;57728;50.448;18.824;2023-05-10T03:04:08;33.51;32.16;38.08;;
67398;Laerm;57728;50.448;18.824;2023-05-10T03:06:09;33.57;32.12;39.33;;
67398;Laerm;57728;50.448;18.824;2023-05-10T03:08:11;33.52;32.32;38.49;;
67398;Laerm;57728;50.448;18.824;2023-05-10T03:10:13;33.98;32.49;40.34;;
67398;Laerm;57728;50.448;18.824;2023-05-10T03:14:57;33.90;32.39;39.36;;
67398;Laerm;57728;50.448;18.824;2023-05-10T03:17:23;33.83;32.36;43.01;;
67398;Laerm;57728;50.448;18.824;2023-05-10T03:19:40;33.56;32.17;37.82;;
67398;Laerm;57728;50.448;18.824;2023-05-10T03:21:51;33.94;32.50;40.35;;
67398;Laerm;57728;50.448;18.824;2023-05-10T03:24:05;33.63;32.36;41.93;;
67398;Laerm;57728;50.448;18.824;2023-05-10T03:26:17;33.74;32.37;37.57;;
67398;Laerm;57728;50.448;18.824;2023-05-10T03:28:21;34.05;32.50;39.09;;
67398;Laerm;57728;50.448;18.824;2023-05-10T03:30:25;34.12;32.45;39.65;;
67398;Laerm;57728;50.448;18.824;2023-05-10T03:32:29;33.83;32.51;39.58;;
67398;Laerm;57728;50.448;18.824;2023-05-10T03:34:31;34.25;32.77;47.84;;
67398;Laerm;57728;50.448;18.824;2023-05-10T03:36:33;33.81;32.54;39.92;;
67398;Laerm;57728;50.448;18.824;2023-05-10T03:38:35;33.96;32.55;42.65;;
67398;Laerm;57728;50.448;18.824;2023-05-10T03:40:43;34.23;32.55;38.82;;
67398;Laerm;57728;50.448;18.824;2023-05-10T03:42:44;34.14;32.73;38.39;;
67398;Laerm;57728;50.448;18.824;2023-05-10T03:44:46;34.19;32.47;41.59;;
67398;Laerm;57728;50.448;18.824;2023-05-10T03:46:50;33.94;32.66;36.74;;
67398;Laerm;57728;50.448;18.824;2023-05-10T03:48:53;34.07;32.59;40.66;;
67398;Laerm;57728;50.448;18.824;2023-05-10T03:50:55;35.17;32.63;50.41;;
67398;Laerm;57728;50.448;18.824;2023-05-10T03:53:01;33.85;32.47;39.08;;
67398;Laerm;57728;50.448;18.824;2023-05-10T03:55:03;33.74;32.48;38.61;;
67398;Laerm;57728;50.448;18.824;2023-05-10T03:57:05;34.29;32.55;40.50;;
67398;Laerm;57728;50.448;18.824;2023-05-10T03:59:07;33.94;32.51;38.09;;
67398;Laerm;57728;50.448;18.824;2023-05-10T04:01:10;33.80;32.42;35.78;;
67398;Laerm;57728;50.448;18.824;2023-05-10T04:03:13;33.99;32.35;39.99;;
67398;Laerm;57728;50.448;18.824;2023-05-10T04:05:14;34.19;32.68;40.14;;
67398;Laerm;57728;50.448;18.824;2023-05-10T04:07:16;33.81;32.49;38.77;;
67398;Laerm;57728;50.448;18.824;2023-05-10T04:09:18;34.10;32.48;41.55;;
67398;Laerm;57728;50.448;18.824;2023-05-10T04:11:19;34.01;32.16;40.41;;
67398;Laerm;57728;50.448;18.824;2023-05-10T04:13:22;34.46;32.47;42.90;;
67398;Laerm;57728;50.448;18.824;2023-05-10T04:15:24;33.90;32.58;37.87;;
67398;Laerm;57728;50.448;18.824;2023-05-10T04:17:25;34.99;32.61;42.92;;
67398;Laerm;57728;50.448;18.824;2023-05-10T04:19:33;34.27;32.70;41.39;;
67398;Laerm;57728;50.448;18.824;2023-05-10T04:21:36;34.15;32.48;39.79;;
67398;Laerm;57728;50.448;18.824;2023-05-10T04:23:37;33.67;32.42;35.64;;
67398;Laerm;57728;50.448;18.824;2023-05-10T04:25:38;34.47;32.58;41.00;;
67398;Laerm;57728;50.448;18.824;2023-05-10T04:27:40;34.61;32.54;41.97;;
67398;Laerm;57728;50.448;18.824;2023-05-10T04:29:42;33.68;32.43;36.01;;
67398;Laerm;57728;50.448;18.824;2023-05-10T04:31:43;34.39;32.56;40.50;;
67398;Laerm;57728;50.448;18.824;2023-05-10T04:33:45;34.29;32.72;40.97;;
67398;Laerm;57728;50.448;18.824;2023-05-10T04:35:46;33.74;32.39;37.46;;
67398;Laerm;57728;50.448;18.824;2023-05-10T04:37:47;34.18;32.48;40.43;;
67398;Laerm;57728;50.448;18.824;2023-05-10T04:39:50;34.23;32.50;43.00;;
67398;Laerm;57728;50.448;18.824;2023-05-10T04:41:51;33.80;32.61;35.77;;
67398;Laerm;57728;50.448;18.824;2023-05-10T04:43:52;33.83;32.28;37.71;;
67398;Laerm;57728;50.448;18.824;2023-05-10T04:45:56;34.49;32.71;41.87;;
67398;Laerm;57728;50.448;18.824;2023-05-10T04:47:58;35.27;32.79;45.15;;
67398;Laerm;57728;50.448;18.824;2023-05-10T04:49:59;34.30;32.59;42.90;;
67398;Laerm;57728;50.448;18.824;2023-05-10T04:52:01;34.34;32.60;42.08;;
67398;Laerm;57728;50.448;18.824;2023-05-10T04:54:02;34.49;32.48;39.91;;
67398;Laerm;57728;50.448;18.824;2023-05-10T04:56:04;34.01;32.65;38.13;;
67398;Laerm;57728;50.448;18.824;2023-05-10T04:58:06;34.18;32.58;39.47;;
67398;Laerm;57728;50.448;18.824;2023-05-10T05:00:09;34.65;32.61;42.31;;
67398;Laerm;57728;50.448;18.824;2023-05-10T05:02:10;34.26;32.55;40.57;;
67398;Laerm;57728;50.448;18.824;2023-05-10T05:04:12;38.97;32.62;56.26;;
67398;Laerm;57728;50.448;18.824;2023-05-10T05:06:13;34.26;32.67;39.27;;
67398;Laerm;57728;50.448;18.824;2023-05-10T05:08:14;34.18;32.40;45.56;;
67398;Laerm;57728;50.448;18.824;2023-05-10T05:10:16;34.01;32.57;37.43;;
67398;Laerm;57728;50.448;18.824;2023-05-10T05:12:18;33.82;32.53;42.09;;
67398;Laerm;57728;50.448;18.824;2023-05-10T05:14:19;34.15;32.63;41.62;;
67398;Laerm;57728;50.448;18.824;2023-05-10T05:16:22;34.05;32.57;39.31;;
67398;Laerm;57728;50.448;18.824;2023-05-10T05:18:24;34.50;32.62;40.78;;
67398;Laerm;57728;50.448;18.824;2023-05-10T05:20:25;36.48;32.63;52.28;;
67398;Laerm;57728;50.448;18.824;2023-05-10T05:22:27;34.98;32.24;46.64;;
67398;Laerm;57728;50.448;18.824;2023-05-10T05:24:29;34.51;32.49;41.89;;
67398;Laerm;57728;50.448;18.824;2023-05-10T05:26:30;34.18;32.55;46.22;;
67398;Laerm;57728;50.448;18.824;2023-05-10T05:28:32;34.04;32.48;40.63;;
67398;Laerm;57728;50.448;18.824;2023-05-10T05:30:35;34.48;32.58;46.80;;
67398;Laerm;57728;50.448;18.824;2023-05-10T05:32:36;34.85;32.88;46.04;;
67398;Laerm;57728;50.448;18.824;2023-05-10T05:34:38;34.41;32.71;39.36;;
67398;Laerm;57728;50.448;18.824;2023-05-10T05:36:40;34.76;32.53;51.79;;
67398;Laerm;57728;50.448;18.824;2023-05-10T05:38:41;34.23;32.56;41.09;;
67398;Laerm;57728;50.448;18.824;2023-05-10T05:40:43;34.28;32.31;39.61;;
67398;Laerm;57728;50.448;18.824;2023-05-10T05:42:44;34.52;32.50;44.21;;
67398;Laerm;57728;50.448;18.824;2023-05-10T05:44:45;34.10;32.47;41.81;;
67398;Laerm;57728;50.448;18.824;2023-05-10T05:46:47;34.75;32.44;40.65;;
67398;Laerm;57728;50.448;18.824;2023-05-10T05:48:48;34.68;32.55;47.40;;
67398;Laerm;57728;50.448;18.824;2023-05-10T05:50:50;35.51;32.60;48.77;;
67398;Laerm;57728;50.448;18.824;2023-05-10T05:52:55;34.38;32.53;40.04;;
67398;Laerm;57728;50.448;18.824;2023-05-10T05:54:57;34.08;32.57;40.68;;
67398;Laerm;57728;50.448;18.824;2023-05-10T05:57:00;34.85;32.53;41.62;;
67398;Laerm;57728;50.448;18.824;2023-05-10T05:59:02;35.62;32.68;46.05;;
67398;Laerm;57728;50.448;18.824;2023-05-10T06:01:04;36.07;32.45;49.98;;
67398;Laerm;57728;50.448;18.824;2023-05-10T06:03:05;33.77;32.43;42.57;;
67398;Laerm;57728;50.448;18.824;2023-05-10T06:05:08;34.04;32.45;37.95;;
67398;Laerm;57728;50.448;18.824;2023-05-10T06:07:10;34.17;32.64;39.75;;
67398;Laerm;57728;50.448;18.824;2023-05-10T06:09:12;34.00;32.52;37.55;;
67398;Laerm;57728;50.448;18.824;2023-05-10T06:11:14;34.26;32.40;40.99;;
67398;Laerm;57728;50.448;18.824;2023-05-10T06:13:15;34.07;32.42;40.40;;
67398;Laerm;57728;50.448;18.824;2023-05-10T06:15:17;33.65;32.50;36.27;;
67398;Laerm;57728;50.448;18.824;2023-05-10T06:17:19;33.67;32.34;37.38;;
67398;Laerm;57728;50.448;18.824;2023-05-10T06:19:20;34.53;32.70;39.68;;
67398;Laerm;57728;50.448;18.824;2023-05-10T06:21:21;34.56;32.52;39.85;;
67398;Laerm;57728;50.448;18.824;2023-05-10T06:23:23;33.93;32.51;38.50;;
67398;Laerm;57728;50.448;18.824;2023-05-10T06:25:26;34.04;32.38;40.81;;
67398;Laerm;57728;50.448;18.824;2023-05-10T06:27:27;33.82;32.44;38.28;;
67398;Laerm;57728;50.448;18.824;2023-05-10T06:29:29;34.59;32.66;43.15;;
67398;Laerm;57728;50.448;18.824;2023-05-10T06:31:30;34.39;32.60;39.04;;
67398;Laerm;57728;50.448;18.824;2023-05-10T06:33:32;33.82;32.41;37.46;;
67398;Laerm;57728;50.448;18.824;2023-05-10T06:35:34;34.26;32.43;40.82;;
67398;Laerm;57728;50.448;18.824;2023-05-10T06:37:35;33.59;32.52;35.38;;
67398;Laerm;57728;50.448;18.824;2023-05-10T06:39:36;33.96;32.22;46.54;;
67398;Laerm;57728;50.448;18.824;2023-05-10T06:41:38;34.74;32.59;49.57;;
67398;Laerm;57728;50.448;18.824;2023-05-10T06:43:39;34.09;32.64;41.77;;
67398;Laerm;57728;50.448;18.824;2023-05-10T06:45:42;34.72;32.85;40.58;;
67398;Laerm;57728;50.448;18.824;2023-05-10T06:47:44;34.58;32.54;44.26;;
67398;Laerm;57728;50.448;18.824;2023-05-10T06:49:45;34.30;32.44;40.89;;
67398;Laerm;57728;50.448;18.824;2023-05-10T06:51:46;34.02;32.52;40.08;;
67398;Laerm;57728;50.448;18.824;2023-05-10T06:53:48;33.86;32.57;40.38;;
67398;Laerm;57728;50.448;18.824;2023-05-10T06:55:50;34.11;32.43;42.25;;
67398;Laerm;57728;50.448;18.824;2023-05-10T06:57:51;34.16;32.77;39.81;;
67398;Laerm;57728;50.448;18.824;2023-05-10T06:59:53;34.37;32.72;40.88;;
67398;Laerm;57728;50.448;18.824;2023-05-10T07:01:59;34.59;32.79;39.26;;
67398;Laerm;57728;50.448;18.824;2023-05-10T07:04:00;34.56;32.47;40.04;;
67398;Laerm;57728;50.448;18.824;2023-05-10T07:06:04;34.62;32.79;43.12;;
67398;Laerm;57728;50.448;18.824;2023-05-10T07:08:05;35.00;32.93;39.35;;
67398;Laerm;57728;50.448;18.824;2023-05-10T07:10:07;35.05;32.48;44.99;;
67398;Laerm;57728;50.448;18.824;2023-05-10T07:12:09;39.23;32.77;54.05;;
67398;Laerm;57728;50.448;18.824;2023-05-10T07:14:11;34.40;32.61;43.93;;
67398;Laerm;57728;50.448;18.824;2023-05-10T07:16:12;35.02;32.75;52.61;;
67398;Laerm;57728;50.448;18.824;2023-05-10T07:18:14;35.20;32.63;42.59;;
67398;Laerm;57728;50.448;18.824;2023-05-10T07:20:16;34.30;32.94;45.94;;
67398;Laerm;57728;50.448;18.824;2023-05-10T07:22:17;34.44;32.58;42.58;;
67398;Laerm;57728;50.448;18.824;2023-05-10T07:24:19;34.24;32.77;43.01;;
67398;Laerm;57728;50.448;18.824;2023-05-10T07:26:21;34.63;32.69;44.38;;
67398;Laerm;57728;50.448;18.824;2023-05-10T07:28:22;34.59;32.78;39.09;;
67398;Laerm;57728;50.448;18.824;2023-05-10T07:30:24;34.55;32.88;41.70;;
67398;Laerm;57728;50.448;18.824;2023-05-10T07:32:25;34.75;33.05;46.46;;
67398;Laerm;57728;50.448;18.824;2023-05-10T07:34:27;35.28;32.83;47.72;;
67398;Laerm;57728;50.448;18.824;2023-05-10T07:36:30;35.28;33.14;39.84;;
67398;Laerm;57728;50.448;18.824;2023-05-10T07:38:31;34.71;32.68;51.19;;
67398;Laerm;57728;50.448;18.824;2023-05-10T07:40:33;35.36;32.95;54.11;;
67398;Laerm;57728;50.448;18.824;2023-05-10T07:42:35;34.51;32.72;51.84;;
67398;Laerm;57728;50.448;18.824;2023-05-10T07:44:36;34.81;33.03;47.17;;
67398;Laerm;57728;50.448;18.824;2023-05-10T07:46:37;34.47;32.76;43.41;;
67398;Laerm;57728;50.448;18.824;2023-05-10T07:48:39;34.22;32.67;41.49;;
67398;Laerm;57728;50.448;18.824;2023-05-10T07:50:41;34.10;32.75;39.66;;
67398;Laerm;57728;50.448;18.824;2023-05-10T07:52:42;36.60;32.81;60.94;;
67398;Laerm;57728;50.448;18.824;2023-05-10T07:54:44;34.80;32.94;46.56;;
67398;Laerm;57728;50.448;18.824;2023-05-10T07:56:45;34.28;32.73;43.34;;
67398;Laerm;57728;50.448;18.824;2023-05-10T07:58:48;34.36;32.80;41.40;;
67398;Laerm;57728;50.448;18.824;2023-05-10T08:00:50;34.48;32.83;44.04;;
67398;Laerm;57728;50.448;18.824;2023-05-10T08:02:51;33.92;32.55;41.40;;
67398;Laerm;57728;50.448;18.824;2023-05-10T08:04:52;34.65;32.85;46.01;;
67398;Laerm;57728;50.448;18.824;2023-05-10T08:06:57;35.85;32.76;48.12;;
67398;Laerm;57728;50.448;18.824;2023-05-10T08:08:59;35.83;32.80;55.83;;
67398;Laerm;57728;50.448;18.824;2023-05-10T08:11:00;34.50;33.00;42.70;;
67398;Laerm;57728;50.448;18.824;2023-05-10T08:13:02;34.17;32.91;43.31;;
67398;Laerm;57728;50.448;18.824;2023-05-10T08:15:04;34.16;32.83;40.10;;
67398;Laerm;57728;50.448;18.824;2023-05-10T08:17:05;34.49;32.75;51.77;;
67398;Laerm;57728;50.448;18.824;2023-05-10T08:19:07;34.22;32.88;40.38;;
67398;Laerm;57728;50.448;18.824;2023-05-10T08:21:08;34.29;32.50;44.64;;
67398;Laerm;57728;50.448;18.824;2023-05-10T08:23:12;34.19;32.72;42.15;;
67398;Laerm;57728;50.448;18.824;2023-05-10T08:25:14;34.41;32.73;40.19;;
67398;Laerm;57728;50.448;18.824;2023-05-10T08:27:16;36.11;33.08;50.27;;
67398;Laerm;57728;50.448;18.824;2023-05-10T08:29:17;34.36;32.78;39.53;;
67398;Laerm;57728;50.448;18.824;2023-05-10T08:31:19;34.41;32.98;43.65;;
67398;Laerm;57728;50.448;18.824;2023-05-10T08:33:20;34.47;32.93;40.01;;
67398;Laerm;57728;50.448;18.824;2023-05-10T08:35:21;34.33;32.82;39.61;;
67398;Laerm;57728;50.448;18.824;2023-05-10T08:37:23;34.36;32.74;43.78;;
67398;Laerm;57728;50.448;18.824;2023-05-10T08:39:25;35.30;33.12;47.26;;
67398;Laerm;57728;50.448;18.824;2023-05-10T08:41:27;34.58;32.90;44.17;;
67398;Laerm;57728;50.448;18.824;2023-05-10T08:43:31;34.11;32.79;40.48;;
67398;Laerm;57728;50.448;18.824;2023-05-10T08:45:38;35.07;32.85;48.68;;
67398;Laerm;57728;50.448;18.824;2023-05-10T08:47:41;34.30;32.78;40.56;;
67398;Laerm;57728;50.448;18.824;2023-05-10T08:49:47;35.78;32.74;51.08;;
67398;Laerm;57728;50.448;18.824;2023-05-10T08:51:55;34.70;32.79;41.44;;
67398;Laerm;57728;50.448;18.824;2023-05-10T08:53:59;34.34;32.71;43.38;;
67398;Laerm;57728;50.448;18.824;2023-05-10T08:56:03;34.38;32.78;43.58;;
67398;Laerm;57728;50.448;18.824;2023-05-10T08:58:05;34.34;32.68;39.50;;
67398;Laerm;57728;50.448;18.824;2023-05-10T09:00:08;35.84;33.00;57.09;;
67398;Laerm;57728;50.448;18.824;2023-05-10T09:02:13;35.77;32.68;52.18;;
67398;Laerm;57728;50.448;18.824;2023-05-10T09:04:14;34.32;32.25;44.89;;
67398;Laerm;57728;50.448;18.824;2023-05-10T09:06:16;33.71;32.63;35.79;;
67398;Laerm;57728;50.448;18.824;2023-05-10T09:08:20;34.00;32.44;37.34;;
67398;Laerm;57728;50.448;18.824;2023-05-10T09:10:22;34.09;32.70;38.74;;
67398;Laerm;57728;50.448;18.824;2023-05-10T09:12:27;34.21;32.55;39.63;;
67398;Laerm;57728;50.448;18.824;2023-05-10T09:14:31;34.90;32.81;40.80;;
67398;Laerm;57728;50.448;18.824;2023-05-10T09:16:35;35.16;32.80;47.01;;
67398;Laerm;57728;50.448;18.824;2023-05-10T09:18:36;34.72;32.54;49.31;;
67398;Laerm;57728;50.448;18.824;2023-05-10T09:20:39;34.05;32.72;41.64;;
67398;Laerm;57728;50.448;18.824;2023-05-10T09:22:41;34.53;32.87;42.04;;
67398;Laerm;57728;50.448;18.824;2023-05-10T09:24:42;34.14;32.49;40.40;;
67398;Laerm;57728;50.448;18.824;2023-05-10T09:26:48;33.91;32.61;37.04;;
67398;Laerm;57728;50.448;18.824;2023-05-10T09:28:55;37.20;32.38;52.74;;
67398;Laerm;57728;50.448;18.824;2023-05-10T09:30:57;34.37;32.71;43.22;;
67398;Laerm;57728;50.448;18.824;2023-05-10T09:33:00;35.84;32.65;54.88;;
67398;Laerm;57728;50.448;18.824;2023-05-10T09:35:17;34.69;32.77;43.15;;
67398;Laerm;57728;50.448;18.824;2023-05-10T09:37:29;34.54;32.60;40.36;;
67398;Laerm;57728;50.448;18.824;2023-05-10T09:39:38;34.33;32.35;37.43;;
67398;Laerm;57728;50.448;18.824;2023-05-10T09:41:42;34.18;32.58;41.70;;
67398;Laerm;57728;50.448;18.824;2023-05-10T09:43:43;36.09;32.62;52.29;;
67398;Laerm;57728;50.448;18.824;2023-05-10T09:45:48;34.64;32.69;43.07;;
67398;Laerm;57728;50.448;18.824;2023-05-10T09:47:53;34.33;32.80;45.41;;
67398;Laerm;57728;50.448;18.824;2023-05-10T09:49:54;34.87;32.54;48.17;;
67398;Laerm;57728;50.448;18.824;2023-05-10T09:52:06;33.79;32.38;37.55;;
67398;Laerm;57728;50.448;18.824;2023-05-10T09:56:12;34.85;32.77;46.13;;
67398;Laerm;57728;50.448;18.824;2023-05-10T09:58:14;33.91;32.63;38.88;;
67398;Laerm;57728;50.448;18.824;2023-05-10T10:00:20;33.95;32.43;42.11;;
67398;Laerm;57728;50.448;18.824;2023-05-10T10:02:28;34.06;32.39;41.25;;
67398;Laerm;57728;50.448;18.824;2023-05-10T10:04:30;34.84;32.61;47.76;;
67398;Laerm;57728;50.448;18.824;2023-05-10T10:06:39;34.54;32.59;51.29;;
67398;Laerm;57728;50.448;18.824;2023-05-10T10:08:41;34.08;32.52;40.83;;
67398;Laerm;57728;50.448;18.824;2023-05-10T10:10:43;33.79;32.46;38.54;;
67398;Laerm;57728;50.448;18.824;2023-05-10T10:12:47;33.84;32.51;42.40;;
67398;Laerm;57728;50.448;18.824;2023-05-10T10:14:50;34.18;32.31;41.43;;
67398;Laerm;57728;50.448;18.824;2023-05-10T10:16:52;33.86;32.63;37.79;;
67398;Laerm;57728;50.448;18.824;2023-05-10T10:18:54;33.73;32.37;42.75;;
67398;Laerm;57728;50.448;18.824;2023-05-10T10:20:56;35.88;32.47;50.38;;
67398;Laerm;57728;50.448;18.824;2023-05-10T10:22:59;35.90;33.24;49.83;;
67398;Laerm;57728;50.448;18.824;2023-05-10T10:25:01;34.60;32.68;40.69;;
67398;Laerm;57728;50.448;18.824;2023-05-10T10:30:02;34.18;32.54;39.32;;
67398;Laerm;57728;50.448;18.824;2023-05-10T10:32:35;34.40;32.30;41.88;;
67398;Laerm;57728;50.448;18.824;2023-05-10T10:34:40;34.15;32.56;40.33;;
67398;Laerm;57728;50.448;18.824;2023-05-10T10:36:47;34.31;32.67;41.03;;
67398;Laerm;57728;50.448;18.824;2023-05-10T10:41:03;33.99;32.57;39.03;;
67398;Laerm;57728;50.448;18.824;2023-05-10T10:43:28;35.71;32.96;44.34;;
67398;Laerm;57728;50.448;18.824;2023-05-10T10:45:30;34.74;32.96;46.62;;
67398;Laerm;57728;50.448;18.824;2023-05-10T10:47:31;34.51;32.15;40.32;;
67398;Laerm;57728;50.448;18.824;2023-05-10T10:52:33;35.01;32.68;43.25;;
67398;Laerm;57728;50.448;18.824;2023-05-10T10:54:35;33.93;32.52;38.40;;
67398;Laerm;57728;50.448;18.824;2023-05-10T10:56:37;34.04;32.61;37.89;;
67398;Laerm;57728;50.448;18.824;2023-05-10T10:58:39;34.20;32.38;40.49;;
67398;Laerm;57728;50.448;18.824;2023-05-10T11:00:41;34.35;32.61;44.28;;
67398;Laerm;57728;50.448;18.824;2023-05-10T11:02:45;34.19;32.74;39.45;;
67398;Laerm;57728;50.448;18.824;2023-05-10T11:04:48;35.33;32.68;44.72;;
67398;Laerm;57728;50.448;18.824;2023-05-10T11:07:16;34.04;32.09;44.09;;
67398;Laerm;57728;50.448;18.824;2023-05-10T11:09:18;34.69;32.67;44.69;;
67398;Laerm;57728;50.448;18.824;2023-05-10T11:11:22;34.04;32.59;40.21;;
67398;Laerm;57728;50.448;18.824;2023-05-10T11:13:37;35.14;32.72;49.43;;
67398;Laerm;57728;50.448;18.824;2023-05-10T11:15:48;34.59;32.79;40.14;;
67398;Laerm;57728;50.448;18.824;2023-05-10T11:17:49;33.85;32.51;39.73;;
67398;Laerm;57728;50.448;18.824;2023-05-10T11:20:23;34.20;32.30;48.22;;
67398;Laerm;57728;50.448;18.824;2023-05-10T11:22:27;33.83;32.44;44.19;;
67398;Laerm;57728;50.448;18.824;2023-05-10T11:24:28;33.99;32.52;43.09;;
67398;Laerm;57728;50.448;18.824;2023-05-10T11:26:34;34.15;32.49;41.17;;
67398;Laerm;57728;50.448;18.824;2023-05-10T11:28:42;33.91;32.62;43.45;;
67398;Laerm;57728;50.448;18.824;2023-05-10T11:30:44;35.42;32.71;52.56;;
67398;Laerm;57728;50.448;18.824;2023-05-10T11:32:47;34.94;32.63;45.54;;
67398;Laerm;57728;50.448;18.824;2023-05-10T11:34:48;34.65;32.87;43.09;;
67398;Laerm;57728;50.448;18.824;2023-05-10T11:36:55;34.47;32.75;46.40;;
67398;Laerm;57728;50.448;18.824;2023-05-10T11:38:57;33.93;32.63;42.74;;
67398;Laerm;57728;50.448;18.824;2023-05-10T11:40:58;34.98;32.73;45.54;;
67398;Laerm;57728;50.448;18.824;2023-05-10T11:42:59;34.39;32.65;42.10;;
67398;Laerm;57728;50.448;18.824;2023-05-10T11:45:01;34.66;32.49;49.25;;
67398;Laerm;57728;50.448;18.824;2023-05-10T11:47:06;34.69;32.59;46.16;;
67398;Laerm;57728;50.448;18.824;2023-05-10T11:49:08;34.32;32.46;41.04;;